createdAt,value
2019-04-27T03:52:39.689Z,6444
2019-04-27T03:57:40.174Z,6444
2019-04-27T03:57:43.580Z,10061
2019-04-27T04:27:35.513Z,20693
2019-04-27T04:32:35.609Z,21803
2019-04-27T05:07:32.328Z,25394
2019-04-27T05:12:31.673Z,25648
2019-04-27T05:17:30.789Z,25875
2019-04-27T05:22:30.857Z,26108
2019-04-27T05:27:29.847Z,26367
2019-04-27T05:32:30.176Z,26676
2019-04-27T05:37:31.571Z,26923
2019-04-27T05:42:28.702Z,27119
2019-04-27T05:47:29.213Z,27241
2019-04-27T05:57:31.184Z,27373
2019-04-27T06:12:26.031Z,27423
2019-04-27T06:22:25.372Z,27883
2019-04-27T06:27:24.428Z,30465
2019-04-27T06:32:24.341Z,30465
2019-04-27T06:37:23.494Z,36573
2019-04-27T06:42:23.492Z,36573
2019-04-27T06:47:22.526Z,36879
2019-04-27T06:52:22.578Z,37183
2019-04-27T06:57:22.104Z,37451
2019-04-27T07:02:21.718Z,37730
2019-04-27T07:12:19.997Z,38165
2019-04-27T07:17:19.702Z,38359
2019-04-27T07:27:21.181Z,38643
2019-04-27T07:32:19.367Z,38754
2019-04-27T07:37:19.526Z,38830
2019-04-27T07:52:18.452Z,38895
2019-04-27T07:57:16.759Z,38880
2019-04-27T08:02:15.620Z,38860
2019-04-27T08:12:14.979Z,38843
2019-04-27T08:32:14.263Z,38803
2019-04-27T08:37:13.256Z,38792
2019-04-27T08:42:12.580Z,38776
2019-04-27T09:27:09.561Z,38044
2019-04-27T09:32:08.744Z,37948
2019-04-27T09:37:07.130Z,37859
2019-04-27T09:42:06.464Z,37730
2019-04-27T09:47:06.080Z,37439
2019-04-27T09:52:06.282Z,37040
2019-04-27T09:57:04.381Z,36679
2019-04-27T10:02:04.580Z,36433
2019-04-27T10:07:06.047Z,36272
2019-04-27T10:12:03.211Z,36079
2019-04-27T10:17:03.262Z,36033
2019-04-27T10:22:02.420Z,35989
2019-04-27T10:27:01.527Z,35876
2019-04-27T10:32:01.213Z,35792
2019-04-27T10:37:01.358Z,35715
2019-04-27T10:42:00.810Z,35596
2019-04-27T11:06:58.310Z,35328
2019-04-27T11:11:57.550Z,35187
2019-04-27T11:16:56.595Z,34811
2019-04-27T11:26:58.091Z,34392
2019-04-27T11:31:57.034Z,34176
2019-04-27T11:41:56.515Z,33785
2019-04-27T11:46:55.955Z,33580
2019-04-27T11:51:56.665Z,33368
2019-04-27T12:01:55.735Z,32890
2019-04-27T12:06:54.260Z,32735
2019-04-27T12:16:52.920Z,32552
2019-04-27T13:51:43.032Z,31216
2019-04-27T13:56:42.810Z,31198
2019-04-27T14:01:42.058Z,31229
2019-04-27T14:06:42.373Z,31278
2019-04-27T14:11:41.180Z,31310
2019-04-27T14:21:40.483Z,31379
2019-04-27T14:26:39.909Z,31284
2019-04-27T14:36:40.526Z,30749
2019-04-27T14:46:38.757Z,30502
2019-04-27T14:51:39.697Z,30281
2019-04-27T14:56:38.637Z,30250
2019-04-27T15:01:37.584Z,30138
2019-04-27T15:11:35.250Z,30113
2019-04-27T15:16:37.760Z,29969
2019-04-27T15:21:38.761Z,29979
2019-04-27T15:26:34.743Z,29868
2019-04-27T15:31:34.105Z,29730
2019-04-27T15:36:33.072Z,29590
2019-04-27T15:41:32.518Z,29532
2019-04-27T15:46:33.683Z,28087
2019-04-27T15:51:31.853Z,27977
2019-04-27T16:06:30.126Z,29611
2019-04-27T16:11:30.135Z,29375
2019-04-27T16:16:33.335Z,28260
2019-04-27T16:21:31.369Z,28184
2019-04-27T16:26:28.865Z,28782
2019-04-27T16:36:28.807Z,28869
2019-04-27T16:46:28.463Z,27620
2019-04-27T17:06:25.108Z,26643
2019-04-27T17:16:24.550Z,25765
2019-04-27T17:21:23.398Z,25460
2019-04-27T17:26:24.059Z,25220
2019-04-27T17:31:22.761Z,24927
2019-04-27T17:36:21.542Z,24573
2019-04-27T18:06:20.374Z,18559
2019-04-27T18:11:21.446Z,16907
2019-04-27T18:13:25.428Z,14832
2019-04-27T18:23:22.038Z,9056
